Time;durP1;ratioP1;P1;durP2;ratioP2;P2;SDS_P1;SDS_P2;PMS_P1;PMS_P2;Temp;Humidity;BMP_temperature;BMP_pressure;BME280_temperature;BME280_humidity;BME280_pressure;Samples;Min_cycle;Max_cycle;Signal;HPM_P1;HPM_P2
2021/10/22 01:48:50;;;;;;;;;;;;;;;6.28;100.00;99747.59;5632409;23;20618;-80
2021/10/22 01:51:15;;;;;;;;;;;;;;;6.33;100.00;99745.72;4992631;28;19922;-81
2021/10/22 01:53:40;;;;;;;;;;;;;;;6.36;100.00;99748.25;4992699;28;20316;-80
2021/10/22 01:56:05;;;;;;;;;;;;;;;6.40;100.00;99758.69;4992265;28;19929;-81
2021/10/22 01:58:31;;;;;;;;;;;;;;;6.44;100.00;99749.84;4992727;28;20014;-81
2021/10/22 02:00:56;;;;;;;;;;;;;;;6.47;100.00;99757.66;4992594;28;19920;-81
2021/10/22 02:03:21;;;;;;;;;;;;;;;6.49;100.00;99755.84;4991106;28;19917;-81
2021/10/22 02:05:47;;;;;;;;;;;;;;;6.52;100.00;99756.59;4992621;28;19918;-81
2021/10/22 02:08:12;;;;;;;;;;;;;;;6.55;100.00;99753.03;4992446;28;19922;-81
2021/10/22 02:10:37;;;;;;;;;;;;;;;6.58;100.00;99768.75;4992513;28;19918;-82
2021/10/22 02:13:03;;;;;;;;;;;;;;;6.62;100.00;99764.25;4992431;28;19918;-81
2021/10/22 02:15:28;;;;;;;;;;;;;;;6.63;100.00;99756.31;4992470;28;19971;-80
2021/10/22 02:17:54;;;;;;;;;;;;;;;6.65;100.00;99765.06;4990973;28;20504;-81
2021/10/22 02:20:19;;;;;;;;;;;;;;;6.69;100.00;99766.69;4992351;28;20001;-81
2021/10/22 02:22:44;;;;;;;;;;;;;;;6.73;100.00;99772.72;4992434;28;19922;-81
2021/10/22 02:25:10;;;;;;;;;;;;;;;6.75;100.00;99770.06;4991505;28;20377;-81
2021/10/22 02:27:35;;;;;;;;;;;;;;;6.78;100.00;99769.97;4992405;28;19937;-81
2021/10/22 02:30:01;;;;;;;;;;;;;;;6.83;100.00;99773.34;4991454;28;20013;-81
2021/10/22 02:32:26;;;;;;;;;;;;;;;6.98;100.00;99762.38;4992133;28;19922;-81
2021/10/22 02:34:51;;;;;;;;;;;;;;;7.23;100.00;99772.22;4991078;28;19949;-81
2021/10/22 02:37:17;;;;;;;;;;;;;;;7.53;100.00;99772.19;4992139;28;19918;-81
2021/10/22 02:39:42;;;;;;;;;;;;;;;7.50;100.00;99782.84;4992324;28;19918;-81
2021/10/22 02:42:07;;;;;;;;;;;;;;;7.48;100.00;99782.03;4992161;28;20364;-81
2021/10/22 02:44:33;;;;;;;;;;;;;;;7.44;100.00;99787.41;4992997;28;19980;-81
2021/10/22 02:46:58;;;;;;;;;;;;;;;7.42;100.00;99788.38;4995822;28;19918;-81
2021/10/22 02:49:24;;;;;;;;;;;;;;;7.42;100.00;99788.38;4982433;28;19996;-81
2021/10/22 02:51:49;;;;;;;;;;;;;;;7.39;100.00;99784.03;5015293;28;19918;-81
2021/10/22 02:54:14;;;;;;;;;;;;;;;7.39;100.00;99789.31;5015311;28;20361;-81
2021/10/22 02:56:40;;;;;;;;;;;;;;;7.37;100.00;99791.13;5015187;28;19918;-81
2021/10/22 02:59:05;;;;;;;;;;;;;;;7.37;100.00;99793.78;5015212;28;19925;-81
2021/10/22 03:01:30;;;;;;;;;;;;;;;7.37;100.00;99788.50;5014913;28;19917;-81
2021/10/22 03:03:56;;;;;;;;;;;;;;;7.37;100.00;99788.50;5013785;28;20144;-81
2021/10/22 03:06:21;;;;;;;;;;;;;;;7.38;100.00;99792.84;5014799;28;19925;-80
2021/10/22 03:08:46;;;;;;;;;;;;;;;7.38;100.00;99792.00;5014996;28;19921;-81
2021/10/22 03:11:12;;;;;;;;;;;;;;;7.38;100.00;99789.34;5014990;28;19940;-81
2021/10/22 03:13:37;;;;;;;;;;;;;;;7.40;100.00;99801.59;5014912;28;19943;-80
2021/10/22 03:16:02;;;;;;;;;;;;;;;7.39;100.00;99802.50;5014815;28;20387;-81
2021/10/22 03:18:27;;;;;;;;;;;;;;;7.39;100.00;99799.84;5013397;28;19918;-80
2021/10/22 03:20:53;;;;;;;;;;;;;;;7.41;100.00;99808.56;5014810;28;19921;-80
2021/10/22 07:57:23;;;;;;;;;;;;;;;3.59;93.61;100027.28;5022256;28;20332;-80
2021/10/22 07:59:49;;;;;;;;;;;;;;;3.63;93.03;100026.34;5004843;28;20007;-80
2021/10/22 08:02:15;;;;;;;;;;;;;;;3.66;92.09;100032.47;5024069;28;20012;-80
2021/10/22 08:04:47;;;;;;;;;;;;;;;3.68;91.63;100028.91;5023009;28;19921;-81
2021/10/22 08:07:13;;;;;;;;;;;;;;;3.72;91.28;100033.25;5023553;28;20004;-80
2021/10/22 08:09:39;;;;;;;;;;;;;;;3.74;90.60;100031.47;5022876;28;19928;-80
2021/10/22 08:12:05;;;;;;;;;;;;;;;3.74;90.01;100031.47;5023926;28;20026;-81
2021/10/22 08:14:30;;;;;;;;;;;;;;;3.74;89.50;100021.00;5023337;28;20045;-80
2021/10/22 08:16:56;;;;;;;;;;;;;;;3.81;89.55;100019.16;5024361;28;19917;-80
2021/10/22 08:19:21;;;;;;;;;;;;;;;3.82;89.03;100023.53;5023564;28;20395;-81
2021/10/22 08:24:12;;;;;;;;;;;;;;;3.84;88.48;100018.28;5021891;28;19928;-80
2021/10/22 08:26:38;;;;;;;;;;;;;;;3.86;88.23;100017.38;5023853;28;19923;-81
2021/10/22 08:29:04;;;;;;;;;;;;;;;3.92;88.39;100021.66;5023243;28;20016;-81
2021/10/22 08:31:29;;;;;;;;;;;;;;;3.93;88.33;100019.03;5023019;28;20012;-81
2021/10/22 08:33:54;;;;;;;;;;;;;;;3.95;87.87;100019.88;5024069;28;19918;-81
2021/10/22 08:36:20;;;;;;;;;;;;;;;3.94;87.57;100025.13;5023488;28;20470;-81
2021/10/22 08:38:45;;;;;;;;;;;;;;;3.98;87.25;100029.47;5022048;28;19928;-81
2021/10/22 08:41:15;;;;;;;;;;;;;;;4.01;87.00;100034.69;5022595;28;19926;-80
2021/10/22 08:43:41;;;;;;;;;;;;;;;4.04;86.52;100039.00;5022770;28;19925;-81
2021/10/22 08:46:12;;;;;;;;;;;;;;;4.02;86.64;100028.56;5022690;28;21325;-81
2021/10/22 08:48:38;;;;;;;;;;;;;;;4.05;86.22;100036.34;5022762;28;20000;-81
2021/10/22 08:51:03;;;;;;;;;;;;;;;4.04;86.01;100039.88;5022565;28;20012;-81
2021/10/22 08:53:29;;;;;;;;;;;;;;;4.12;85.79;100040.66;5023032;28;19923;-80
2021/10/22 08:55:54;;;;;;;;;;;;;;;4.11;85.71;100045.91;5021482;28;20339;-80
2021/10/22 08:58:20;;;;;;;;;;;;;;;4.14;85.88;100049.38;5022521;28;19922;-81
2021/10/22 09:00:46;;;;;;;;;;;;;;;4.15;85.52;100053.72;5022905;28;20404;-81
2021/10/22 09:03:15;;;;;;;;;;;;;;;4.21;85.46;100059.78;5022931;28;19927;-81
2021/10/22 09:05:55;;;;;;;;;;;;;;;4.22;85.42;100051.03;5022297;28;19933;-81
2021/10/22 09:08:29;;;;;;;;;;;;;;;4.24;85.38;100051.88;5022932;28;20348;-81
2021/10/22 09:10:54;;;;;;;;;;;;;;;4.24;85.38;100044.00;5021040;28;19922;-81
2021/10/22 09:13:25;;;;;;;;;;;;;;;4.27;85.24;100036.97;5022626;28;19917;-81
2021/10/22 09:15:51;;;;;;;;;;;;;;;4.30;85.04;100047.41;5022144;28;19928;-81
2021/10/22 09:18:17;;;;;;;;;;;;;;;4.34;84.92;100045.59;5022185;28;19917;-81
2021/10/22 09:20:55;;;;;;;;;;;;;;;4.38;84.96;100046.47;5022867;28;19968;-81
2021/10/22 09:23:25;;;;;;;;;;;;;;;4.40;84.86;100042.91;5022858;28;19923;-81
2021/10/22 09:25:50;;;;;;;;;;;;;;;4.39;84.57;100043.81;5021126;28;20407;-80
2021/10/22 09:28:24;;;;;;;;;;;;;;;4.43;84.55;100057.75;5022555;28;19956;-81
2021/10/22 09:30:50;;;;;;;;;;;;;;;4.48;84.83;100056.81;5022490;28;20276;-81
2021/10/22 09:33:16;;;;;;;;;;;;;;;4.46;84.91;100055.94;5022435;28;20139;-81
2021/10/22 09:35:43;;;;;;;;;;;;;;;4.53;84.84;100057.63;5022067;28;19960;-81
2021/10/22 09:38:13;;;;;;;;;;;;;;;4.48;84.55;100056.81;5022195;28;19917;-81
2021/10/22 09:40:42;;;;;;;;;;;;;;;4.54;84.63;100061.97;5020846;28;19921;-81
2021/10/22 09:43:21;;;;;;;;;;;;;;;4.57;84.91;100066.31;5021929;28;19969;-81
2021/10/22 09:45:48;;;;;;;;;;;;;;;4.60;84.71;100068.03;5021990;28;20024;-81
2021/10/22 09:48:23;;;;;;;;;;;;;;;4.60;84.53;100065.41;5004236;28;19917;-81
2021/10/22 09:50:48;;;;;;;;;;;;;;;4.61;84.52;100067.13;5021767;28;20367;-81
2021/10/22 09:53:23;;;;;;;;;;;;;;;4.68;84.93;100071.41;5022391;28;19924;-81
2021/10/22 09:55:59;;;;;;;;;;;;;;;4.70;84.88;100064.38;5016716;28;19953;-81
2021/10/22 09:58:24;;;;;;;;;;;;;;;4.68;84.71;100067.03;5010156;28;20323;-81
2021/10/22 10:01:04;;;;;;;;;;;;;;;4.69;84.71;100065.25;5012225;28;19917;-81
2021/10/22 10:03:29;;;;;;;;;;;;;;;4.70;84.37;100061.75;5011835;28;19971;-81
2021/10/22 10:05:55;;;;;;;;;;;;;;;4.73;84.52;100066.97;5012104;28;19953;-81
2021/10/22 10:08:20;;;;;;;;;;;;;;;4.75;84.45;100067.78;5011012;28;19918;-81
2021/10/22 10:10:46;;;;;;;;;;;;;;;4.82;84.81;100071.19;5009435;28;19948;-81
2021/10/22 10:13:11;;;;;;;;;;;;;;;4.83;84.96;100065.91;5010560;28;19917;-81
2021/10/22 10:15:38;;;;;;;;;;;;;;;4.83;84.91;100068.53;5011935;28;20403;-81
2021/10/22 10:18:07;;;;;;;;;;;;;;;4.87;85.16;100078.13;5011729;28;19918;-81
2021/10/22 10:20:39;;;;;;;;;;;;;;;4.89;85.36;100084.22;5011751;28;19921;-81
2021/10/22 10:23:04;;;;;;;;;;;;;;;4.89;85.22;100084.22;5011751;28;20008;-81
2021/10/22 10:25:32;;;;;;;;;;;;;;;4.95;85.44;100088.53;5010398;28;20008;-81
2021/10/22 10:27:59;;;;;;;;;;;;;;;4.94;85.47;100092.03;5011364;28;19929;-83
2021/10/22 10:30:32;;;;;;;;;;;;;;;4.96;85.58;100105.13;5011588;28;19922;-81
2021/10/22 10:32:58;;;;;;;;;;;;;;;4.96;85.53;100094.63;5011095;28;19961;-81
2021/10/22 10:35:24;;;;;;;;;;;;;;;5.00;85.74;100096.34;5011321;28;19967;-81
2021/10/22 10:37:50;;;;;;;;;;;;;;;5.03;85.84;100093.66;5011661;28;20408;-81
2021/10/22 10:40:24;;;;;;;;;;;;;;;5.05;85.71;100102.38;5010058;28;19953;-81
2021/10/22 10:42:54;;;;;;;;;;;;;;;5.07;86.07;100095.34;5011120;28;20490;-81
2021/10/22 10:45:26;;;;;;;;;;;;;;;5.10;86.14;100097.91;5011582;28;19949;-81
2021/10/22 10:47:51;;;;;;;;;;;;;;;5.13;86.18;100104.88;5011241;28;20451;-81
2021/10/22 10:50:20;;;;;;;;;;;;;;;5.15;86.35;100093.44;5011530;28;20008;-81
2021/10/22 10:52:46;;;;;;;;;;;;;;;5.18;86.66;100089.91;5011312;28;19975;-81
2021/10/22 10:55:32;;;;;;;;;;;;;;;5.17;86.59;100094.31;5011043;28;19917;-81
2021/10/22 10:57:59;;;;;;;;;;;;;;;5.22;86.37;100099.50;5021569;28;19921;-81
2021/10/22 11:00:32;;;;;;;;;;;;;;;5.22;86.52;100097.72;5021186;28;19968;-81
2021/10/22 11:03:04;;;;;;;;;;;;;;;5.25;86.73;100089.81;5021650;28;20407;-81
2021/10/22 11:05:48;;;;;;;;;;;;;;;5.29;86.86;100098.50;5021633;28;20365;-81
2021/10/22 11:08:14;;;;;;;;;;;;;;;5.30;86.80;100099.34;5025545;28;20000;-81
2021/10/22 11:10:59;;;;;;;;;;;;;;;5.34;86.93;100090.53;5023106;28;19930;-81
2021/10/22 11:13:40;;;;;;;;;;;;;;;5.37;87.02;100090.50;5024773;28;19921;-81
2021/10/22 11:16:06;;;;;;;;;;;;;;;5.34;86.91;100085.28;5024576;28;19975;-81
2021/10/22 11:18:33;;;;;;;;;;;;;;;5.37;86.84;100080.84;5024921;28;19928;-81
2021/10/22 11:20:59;;;;;;;;;;;;;;;5.37;87.06;100074.72;5025076;28;19917;-81
2021/10/22 11:23:25;;;;;;;;;;;;;;;5.39;87.07;100080.81;5024565;28;19921;-81
2021/10/22 11:25:57;;;;;;;;;;;;;;;5.40;86.94;100075.53;5023070;28;19957;-81
2021/10/22 11:28:31;;;;;;;;;;;;;;;5.43;87.33;100069.38;5024365;28;19967;-81
2021/10/22 11:30:57;;;;;;;;;;;;;;;5.45;87.39;100072.81;5024491;28;19921;-81
2021/10/22 11:33:26;;;;;;;;;;;;;;;5.46;87.55;100066.69;5024070;28;20269;-81
2021/10/22 11:35:53;;;;;;;;;;;;;;;5.46;87.57;100061.44;5024525;28;19975;-81
2021/10/22 11:38:27;;;;;;;;;;;;;;;5.51;87.53;100066.59;5024179;28;19969;-81
2021/10/22 11:40:53;;;;;;;;;;;;;;;5.54;87.58;100080.56;5022596;28;19921;-81
2021/10/22 11:43:20;;;;;;;;;;;;;;;5.54;87.81;100071.81;5024449;28;19928;-81
2021/10/22 11:45:50;;;;;;;;;;;;;;;5.56;87.88;100064.75;5024304;28;20291;-81
2021/10/22 11:48:28;;;;;;;;;;;;;;;5.56;87.95;100064.75;5023959;28;19957;-81
2021/10/22 11:50:53;;;;;;;;;;;;;;;5.58;88.11;100074.34;5023909;28;19937;-81
2021/10/22 11:53:24;;;;;;;;;;;;;;;5.58;88.25;100069.06;5024086;28;20463;-81
2021/10/22 11:55:56;;;;;;;;;;;;;;;5.61;88.34;100069.03;5019420;28;19922;-81
2021/10/22 11:58:22;;;;;;;;;;;;;;;5.62;88.52;100070.78;5014003;28;19924;-81
2021/10/22 12:00:55;;;;;;;;;;;;;;;5.62;88.53;100078.66;5013849;28;19921;-81
2021/10/22 12:03:27;;;;;;;;;;;;;;;5.64;88.64;100078.63;5013844;28;20044;-81
2021/10/22 12:05:54;;;;;;;;;;;;;;;5.67;88.91;100080.34;5013071;28;19918;-81
2021/10/22 12:08:20;;;;;;;;;;;;;;;5.69;88.97;100075.91;5013162;28;19917;-81
2021/10/22 12:10:57;;;;;;;;;;;;;;;5.69;88.82;100074.16;5012460;28;19921;-81
2021/10/22 12:13:32;;;;;;;;;;;;;;;5.73;89.06;100083.72;5013647;28;19924;-81
2021/10/22 12:16:13;;;;;;;;;;;;;;;5.77;89.45;100077.50;5013288;28;20327;-81
2021/10/22 12:18:42;;;;;;;;;;;;;;;5.77;89.41;100072.25;5012692;28;19925;-81
2021/10/22 12:21:09;;;;;;;;;;;;;;;5.82;89.48;100069.53;5013115;28;19928;-81
2021/10/22 12:23:38;;;;;;;;;;;;;;;5.82;89.79;100074.78;5012563;28;19917;-81
2021/10/22 12:26:03;;;;;;;;;;;;;;;5.83;90.00;100077.38;5011920;28;19940;-81
2021/10/22 12:28:28;;;;;;;;;;;;;;;5.87;90.19;100079.97;5013491;28;20360;-81
2021/10/22 12:31:14;;;;;;;;;;;;;;;5.86;90.10;100076.47;5013430;28;19918;-81
2021/10/22 12:33:39;;;;;;;;;;;;;;;5.88;90.43;100076.44;5012943;28;20377;-81
2021/10/22 12:36:17;;;;;;;;;;;;;;;5.88;90.41;100072.03;5013679;28;19921;-81
2021/10/22 12:38:42;;;;;;;;;;;;;;;5.91;90.40;100077.25;5011811;28;20384;-81
2021/10/22 12:41:11;;;;;;;;;;;;;;;5.94;90.73;100077.19;5012095;28;19918;-81
2021/10/22 12:43:37;;;;;;;;;;;;;;;5.99;90.91;100074.50;5012495;28;19917;-81
2021/10/22 12:46:05;;;;;;;;;;;;;;;5.99;91.06;100077.13;5013306;28;20392;-81
2021/10/22 12:48:45;;;;;;;;;;;;;;;6.00;91.11;100066.59;5013128;28;19972;-81
2021/10/22 12:51:11;;;;;;;;;;;;;;;6.04;91.30;100067.38;5012677;28;19971;-81
2021/10/22 12:53:42;;;;;;;;;;;;;;;6.17;92.02;100073.28;5012262;28;20288;-81
2021/10/22 12:56:22;;;;;;;;;;;;;;;6.24;92.50;100063.47;5010833;28;19922;-81
2021/10/22 12:58:57;;;;;;;;;;;;;;;6.26;93.29;100062.56;5012369;28;19917;-81
2021/10/22 13:01:30;;;;;;;;;;;;;;;6.27;93.94;100066.94;5012762;28;20004;-81
2021/10/22 13:04:00;;;;;;;;;;;;;;;6.20;94.31;100064.47;5027970;28;20300;-81
2021/10/22 13:06:39;;;;;;;;;;;;;;;6.13;94.62;100066.34;5012670;28;20395;-81
2021/10/22 13:14:52;;;;;;;;;;;;;;;5.58;93.59;100062.97;5011979;28;20016;-81
2021/10/22 13:22:46;;;;;;;;;;;;;;;5.32;95.20;100055.53;5012419;28;19921;-81
2021/10/22 13:25:11;;;;;;;;;;;;;;;5.28;97.36;100050.34;5011262;28;20024;-81
2021/10/22 13:27:37;;;;;;;;;;;;;;;5.39;100.00;100046.66;5012377;28;19980;-81
2021/10/22 13:30:11;;;;;;;;;;;;;;;5.58;100.00;100048.03;5011619;28;20012;-81
2021/10/22 13:32:36;;;;;;;;;;;;;;;5.81;100.00;100041.50;5012301;28;19917;-81
2021/10/22 13:35:02;;;;;;;;;;;;;;;6.05;100.00;100040.19;5012373;28;20353;-81
2021/10/22 13:37:27;;;;;;;;;;;;;;;6.21;100.00;100048.63;5011234;28;19951;-81
2021/10/22 13:39:53;;;;;;;;;;;;;;;6.33;100.00;100043.13;5009700;28;19961;-81
2021/10/22 13:42:18;;;;;;;;;;;;;;;6.40;100.00;100056.13;5012324;28;19944;-81
2021/10/22 13:44:43;;;;;;;;;;;;;;;6.47;100.00;100050.69;5012128;28;20345;-81
2021/10/22 13:47:09;;;;;;;;;;;;;;;6.52;100.00;100051.47;5012211;28;19917;-81
2021/10/22 13:49:35;;;;;;;;;;;;;;;6.55;100.00;100051.41;5012059;28;20068;-81
2021/10/22 13:52:01;;;;;;;;;;;;;;;6.58;100.00;100047.84;5011332;28;20323;-81
2021/10/22 13:54:26;;;;;;;;;;;;;;;6.66;100.00;100045.91;5010758;28;19918;-81
2021/10/22 13:56:52;;;;;;;;;;;;;;;6.68;100.00;100046.72;5011800;28;19921;-81
2021/10/22 13:59:17;;;;;;;;;;;;;;;6.71;100.00;100043.16;5012096;28;19918;-81
2021/10/22 14:01:42;;;;;;;;;;;;;;;6.75;100.00;100043.94;5012143;28;19922;-81
2021/10/22 14:04:07;;;;;;;;;;;;;;;6.81;100.00;100052.59;5011978;28;19943;-81
2021/10/22 14:06:35;;;;;;;;;;;;;;;6.82;100.00;100056.94;5012148;28;19921;-81
2021/10/22 14:09:01;;;;;;;;;;;;;;;6.85;100.00;100041.06;5010216;28;19918;-81
2021/10/22 14:11:27;;;;;;;;;;;;;;;6.86;100.00;100052.47;5012104;28;19928;-81
2021/10/22 14:13:59;;;;;;;;;;;;;;;6.88;100.00;100050.69;5011244;28;20384;-81
2021/10/22 14:16:37;;;;;;;;;;;;;;;6.90;100.00;100062.91;5011381;28;19926;-81
2021/10/22 14:29:45;;;;;;;;;;;;;;;4.84;100.00;100080.78;5011927;28;19941;-81
2021/10/22 14:32:12;;;;;;;;;;;;;;;4.27;100.00;100083.31;5011776;28;19924;-81
2021/10/22 14:34:37;;;;;;;;;;;;;;;3.98;100.00;100076.66;5011766;28;20349;-81
2021/10/22 14:37:03;;;;;;;;;;;;;;;3.86;100.00;100080.31;5011705;28;20004;-81
2021/10/22 14:39:29;;;;;;;;;;;;;;;3.72;100.00;100072.56;5010384;28;19958;-81
2021/10/22 14:41:54;;;;;;;;;;;;;;;3.42;98.73;100074.59;5014563;28;20369;-81
2021/10/22 14:44:23;;;;;;;;;;;;;;;3.40;97.32;100079.00;5015468;28;19985;-81
2021/10/22 14:46:55;;;;;;;;;;;;;;;3.22;97.06;100084.38;5014882;28;19929;-81
2021/10/22 14:49:27;;;;;;;;;;;;;;;3.44;96.86;100083.31;5015169;28;19922;-81
2021/10/22 14:54:23;;;;;;;;;;;;;;;3.42;93.42;100079.84;5013993;28;19921;-81
2021/10/22 14:56:48;;;;;;;;;;;;;;;3.27;91.56;100087.81;5022151;28;19932;-81
2021/10/22 14:59:15;;;;;;;;;;;;;;;3.11;91.37;100083.59;5024891;28;19917;-81
2021/10/22 15:01:40;;;;;;;;;;;;;;;3.00;90.75;100083.66;5024970;28;19960;-81
2021/10/22 15:04:07;;;;;;;;;;;;;;;2.93;89.92;100092.47;5024551;28;19929;-81
2021/10/22 15:06:32;;;;;;;;;;;;;;;2.94;89.96;100087.22;5024636;28;19924;-81
2021/10/22 15:08:58;;;;;;;;;;;;;;;2.98;89.78;100090.66;5023295;28;20275;-81
2021/10/22 15:11:24;;;;;;;;;;;;;;;2.85;89.31;100084.66;5024623;28;19921;-81
2021/10/22 15:13:49;;;;;;;;;;;;;;;2.85;88.59;100084.66;5007297;28;19917;-81
2021/10/22 15:16:15;;;;;;;;;;;;;;;2.85;89.22;100095.13;5024577;28;19922;-81
2021/10/22 15:18:40;;;;;;;;;;;;;;;2.71;88.80;100092.56;5024752;28;20211;-81
2021/10/22 15:21:05;;;;;;;;;;;;;;;2.77;87.53;100097.78;5024314;28;19921;-81
2021/10/22 15:23:30;;;;;;;;;;;;;;;2.55;87.14;100094.41;5024253;28;19921;-81
2021/10/22 15:25:56;;;;;;;;;;;;;;;2.61;87.75;100096.13;5023506;28;20016;-81
2021/10/22 15:28:21;;;;;;;;;;;;;;;2.50;87.25;100096.19;5024989;28;20023;-81
2021/10/22 15:30:47;;;;;;;;;;;;;;;2.42;87.45;100101.44;5024245;28;19925;-81
2021/10/22 15:33:12;;;;;;;;;;;;;;;2.43;88.91;100099.72;5024291;28;19955;-81
2021/10/22 15:35:39;;;;;;;;;;;;;;;2.48;93.57;100100.56;5025057;28;19924;-80
2021/10/22 15:38:05;;;;;;;;;;;;;;;2.58;99.99;100098.78;5006661;28;19917;-81
2021/10/22 15:40:30;;;;;;;;;;;;;;;2.65;100.00;100098.72;5022645;28;19924;-81
2021/10/22 15:42:56;;;;;;;;;;;;;;;2.72;100.00;100105.66;5024284;28;19921;-80
2021/10/22 15:45:21;;;;;;;;;;;;;;;2.82;100.00;100105.59;5024569;28;20367;-81
2021/10/22 15:47:47;;;;;;;;;;;;;;;2.88;100.00;100108.19;5024538;28;19948;-81
2021/10/22 15:50:12;;;;;;;;;;;;;;;2.89;100.00;100109.94;5024148;28;19921;-80
2021/10/22 15:52:38;;;;;;;;;;;;;;;2.91;100.00;100111.66;5022944;28;19918;-81
2021/10/22 15:55:03;;;;;;;;;;;;;;;2.99;100.00;100105.50;5022374;28;19921;-81
2021/10/22 15:57:30;;;;;;;;;;;;;;;2.99;100.00;100106.38;5024374;28;19929;-81
2021/10/22 15:59:55;;;;;;;;;;;;;;;2.99;100.00;100103.75;5023690;28;19936;-81
2021/10/22 16:02:21;;;;;;;;;;;;;;;3.04;100.00;100109.81;5024281;28;19917;-81
2021/10/22 16:04:47;;;;;;;;;;;;;;;3.05;100.00;100102.84;5023822;28;19972;-81
2021/10/22 16:09:58;;;;;;;;;;;;;;;3.08;100.00;100113.31;5022404;28;20002;-81
2021/10/22 16:15:07;;;;;;;;;;;;;;;3.08;100.00;100119.41;5023691;28;19928;-81
2021/10/22 16:17:33;;;;;;;;;;;;;;;3.12;100.00;100117.63;5023674;28;19921;-81
2021/10/22 16:20:06;;;;;;;;;;;;;;;3.15;100.00;100122.84;5023792;28;20360;-80
2021/10/22 16:22:31;;;;;;;;;;;;;;;3.16;100.00;100121.97;5022252;28;19917;-80
2021/10/22 16:24:57;;;;;;;;;;;;;;;3.19;100.00;100126.28;5022418;28;20589;-81
2021/10/22 16:27:22;;;;;;;;;;;;;;;3.18;100.00;100119.34;5022854;28;19917;-81
2021/10/22 16:29:48;;;;;;;;;;;;;;;3.20;100.00;100128.03;5023534;28;19924;-81
2021/10/22 16:32:14;;;;;;;;;;;;;;;3.24;100.00;100129.78;5023550;28;19921;-81
2021/10/22 16:37:26;;;;;;;;;;;;;;;3.29;100.00;100135.84;5024153;28;19936;-80
2021/10/22 16:39:51;;;;;;;;;;;;;;;3.27;100.00;100134.97;5021710;28;20008;-80
2021/10/22 16:42:19;;;;;;;;;;;;;;;3.27;100.00;100141.09;5021480;28;20031;-81
2021/10/22 16:44:44;;;;;;;;;;;;;;;3.31;100.00;100136.69;5012873;28;19968;-80
2021/10/22 16:47:10;;;;;;;;;;;;;;;3.28;100.00;100145.44;5021467;28;20361;-80
2021/10/22 16:49:35;;;;;;;;;;;;;;;3.33;100.00;100142.78;5022477;28;19925;-81
2021/10/22 16:52:00;;;;;;;;;;;;;;;3.35;100.00;100141.03;5011284;28;19921;-81
2021/10/22 16:54:27;;;;;;;;;;;;;;;3.36;100.00;100150.63;5010626;28;19972;-80
2021/10/22 16:56:53;;;;;;;;;;;;;;;3.35;100.00;100154.13;5024057;28;19975;-81
2021/10/22 16:59:18;;;;;;;;;;;;;;;3.40;100.00;100151.47;5004452;28;19929;-80
2021/10/22 17:01:44;;;;;;;;;;;;;;;3.38;100.00;100154.13;5005461;28;19944;-81
2021/10/22 17:04:09;;;;;;;;;;;;;;;3.42;100.00;100147.94;5021794;28;19925;-81
2021/10/22 17:06:35;;;;;;;;;;;;;;;3.43;100.00;100157.56;5002962;28;19925;-80
2021/10/22 17:09:00;;;;;;;;;;;;;;;3.44;100.00;100158.41;5004407;28;19946;-81
2021/10/22 17:11:26;;;;;;;;;;;;;;;3.47;100.00;100168.03;5004776;28;20330;-81
2021/10/22 17:13:51;;;;;;;;;;;;;;;3.46;100.00;100161.88;5023532;28;19921;-80
2021/10/22 17:16:17;;;;;;;;;;;;;;;3.47;100.00;100168.88;5024042;28;20319;-81
2021/10/22 17:18:42;;;;;;;;;;;;;;;3.52;99.40;100174.09;5022622;28;19921;-81
2021/10/22 17:21:07;;;;;;;;;;;;;;;3.53;98.87;100171.47;5021173;28;20324;-82
2021/10/22 17:23:34;;;;;;;;;;;;;;;3.52;98.45;100174.94;5023057;28;19925;-81
2021/10/22 17:25:59;;;;;;;;;;;;;;;3.53;97.91;100183.69;5003920;28;19925;-81
2021/10/22 17:28:24;;;;;;;;;;;;;;;3.55;97.64;100181.94;5022153;28;19924;-81
2021/10/22 17:30:52;;;;;;;;;;;;;;;3.56;97.43;100188.91;5022488;28;19936;-80
2021/10/22 17:33:17;;;;;;;;;;;;;;;3.56;97.14;100199.41;5022772;28;19944;-80
2021/10/22 17:35:43;;;;;;;;;;;;;;;3.57;96.81;100201.13;5022087;28;19921;-81
2021/10/22 17:38:09;;;;;;;;;;;;;;;3.60;96.47;100201.09;5020818;28;19932;-80
2021/10/22 17:40:35;;;;;;;;;;;;;;;3.61;96.23;100206.31;5021259;28;19928;-81
2021/10/22 17:43:00;;;;;;;;;;;;;;;3.61;95.94;100205.47;5020818;28;20319;-81
2021/10/22 17:45:25;;;;;;;;;;;;;;;3.61;95.65;100213.31;5023099;28;20257;-81
2021/10/22 17:47:51;;;;;;;;;;;;;;;5.02;99.97;100208.34;5026965;28;19934;-79
2021/10/22 17:50:16;;;;;;;;;;;;;;;6.16;99.59;100208.38;5012404;28;20332;-81
2021/10/22 17:52:41;;;;;;;;;;;;;;;4.84;97.29;100206.84;5001195;28;20420;-82
2021/10/22 17:55:08;;;;;;;;;;;;;;;4.31;96.94;100226.69;5002433;28;19921;-82
2021/10/22 17:57:33;;;;;;;;;;;;;;;4.10;96.47;100220.78;5002113;28;19996;-81
2021/10/22 17:59:59;;;;;;;;;;;;;;;3.99;96.32;100230.50;5001507;28;20360;-81
2021/10/22 18:02:25;;;;;;;;;;;;;;;3.92;96.07;100231.41;5002204;28;19975;-81
2021/10/22 18:04:50;;;;;;;;;;;;;;;3.88;95.67;100227.06;4984054;28;20024;-82
2021/10/22 18:07:15;;;;;;;;;;;;;;;3.82;95.56;100234.13;5001882;28;19930;-81
2021/10/22 18:09:40;;;;;;;;;;;;;;;3.81;95.51;100242.00;5000568;28;19921;-81
2021/10/22 18:12:06;;;;;;;;;;;;;;;3.82;95.36;100239.34;4998614;28;19930;-80
2021/10/22 18:14:31;;;;;;;;;;;;;;;3.77;95.52;100256.03;5002627;28;20292;-81
2021/10/22 18:16:57;;;;;;;;;;;;;;;3.73;95.44;100257.78;5004042;28;19922;-81
2021/10/22 18:19:23;;;;;;;;;;;;;;;3.73;95.63;100249.91;5005604;28;19991;-81
2021/10/22 18:21:49;;;;;;;;;;;;;;;3.75;95.45;100258.66;4988224;28;20364;-81
2021/10/22 18:24:16;;;;;;;;;;;;;;;3.72;95.30;100263.91;5004766;28;20396;-82
2021/10/22 18:26:42;;;;;;;;;;;;;;;3.73;95.23;100255.16;5005372;28;19921;-82
2021/10/22 18:29:15;;;;;;;;;;;;;;;3.70;95.43;100260.44;4988350;28;19929;-81
2021/10/22 18:31:40;;;;;;;;;;;;;;;3.68;95.34;100256.94;5005431;28;19968;-81
2021/10/22 18:34:05;;;;;;;;;;;;;;;3.72;95.14;100263.91;5005134;28;20280;-81
2021/10/22 18:36:33;;;;;;;;;;;;;;;3.70;94.87;100264.78;5005133;28;19929;-81
2021/10/22 18:38:59;;;;;;;;;;;;;;;3.67;94.69;100265.72;5005310;28;19970;-81
2021/10/22 18:41:24;;;;;;;;;;;;;;;3.70;94.51;100265.69;5004095;28;20015;-81
2021/10/22 18:43:49;;;;;;;;;;;;;;;3.68;94.43;100267.44;5004201;28;19921;-81
2021/10/22 18:46:23;;;;;;;;;;;;;;;3.69;94.48;100268.31;5003674;28;19976;-81
2021/10/22 18:51:33;;;;;;;;;;;;;;;3.64;94.25;100263.09;5005540;28;20064;-81
2021/10/22 18:53:59;;;;;;;;;;;;;;;3.67;94.17;100264.81;5004665;28;19918;-81
2021/10/22 18:56:25;;;;;;;;;;;;;;;3.67;94.09;100270.94;4982807;28;19926;-81
2021/10/22 18:58:51;;;;;;;;;;;;;;;3.66;94.08;100268.34;4996879;28;20414;-81
2021/10/22 19:01:16;;;;;;;;;;;;;;;3.67;94.09;100270.06;4981991;28;20012;-81
2021/10/22 19:03:42;;;;;;;;;;;;;;;3.67;93.86;100270.06;4979107;28;19922;-81
2021/10/22 19:06:26;;;;;;;;;;;;;;;3.66;93.80;100266.56;4984731;28;19945;-81
2021/10/22 19:08:51;;;;;;;;;;;;;;;3.65;93.85;100264.81;4985245;28;19922;-82
2021/10/22 19:11:17;;;;;;;;;;;;;;;3.67;93.79;100272.69;4982565;28;19919;-81
2021/10/22 19:13:42;;;;;;;;;;;;;;;3.64;93.42;100270.97;4983446;28;19922;-81
2021/10/22 19:16:07;;;;;;;;;;;;;;;3.66;93.56;100274.44;4982600;28;19922;-81
2021/10/22 19:18:33;;;;;;;;;;;;;;;3.65;93.52;100280.53;4984038;28;19932;-81
2021/10/22 19:20:58;;;;;;;;;;;;;;;3.65;93.64;100288.41;4984200;28;19917;-82
2021/10/22 19:23:28;;;;;;;;;;;;;;;3.67;93.61;100299.78;4982119;28;19967;-82
2021/10/22 19:25:53;;;;;;;;;;;;;;;3.66;93.43;100295.41;4982553;28;19965;-81
2021/10/22 19:28:18;;;;;;;;;;;;;;;3.63;93.55;100295.41;4983533;28;19918;-81
2021/10/22 19:30:43;;;;;;;;;;;;;;;3.67;94.00;100294.53;4984108;28;20300;-81
2021/10/22 19:33:10;;;;;;;;;;;;;;;3.70;94.20;100294.50;4984205;28;19922;-81
2021/10/22 19:35:35;;;;;;;;;;;;;;;3.69;94.43;100298.00;4982840;28;20013;-81
2021/10/22 19:38:01;;;;;;;;;;;;;;;3.68;94.62;100287.53;4983955;28;20020;-82
2021/10/22 19:40:26;;;;;;;;;;;;;;;3.66;94.29;100279.69;4981406;28;19944;-81
2021/10/22 19:42:51;;;;;;;;;;;;;;;3.64;93.60;100287.56;4980928;28;19925;-81
2021/10/22 19:45:17;;;;;;;;;;;;;;;3.64;93.38;100279.69;4984341;28;19945;-81